createdAt,value
2022-08-14T00:00:07.197Z,22.21
2022-08-14T00:02:40.076Z,22.07
2022-08-14T00:05:11.436Z,21.85
2022-08-14T00:07:42.257Z,21.70
2022-08-14T00:10:50.148Z,21.63
2022-08-14T00:13:07.075Z,21.56
2022-08-14T00:15:44.364Z,21.51
2022-08-14T00:18:30.825Z,21.49
2022-08-14T00:21:11.264Z,21.46
2022-08-14T00:23:43.201Z,21.42
2022-08-14T00:26:21.728Z,21.39
2022-08-14T00:28:52.054Z,21.36
2022-08-14T00:31:44.312Z,21.34
2022-08-14T00:34:37.591Z,21.33
2022-08-14T00:36:59.329Z,21.30
2022-08-14T00:39:29.233Z,21.27
2022-08-14T00:41:58.878Z,21.26
2022-08-14T00:44:32.949Z,21.25
2022-08-14T00:47:03.484Z,21.24
2022-08-14T00:49:38.380Z,21.20
2022-08-14T00:52:13.999Z,21.17
2022-08-14T00:54:46.154Z,21.12
2022-08-14T00:57:15.159Z,21.07
2022-08-14T00:59:45.790Z,21.04
2022-08-14T01:02:16.265Z,21.02
2022-08-14T01:04:53.740Z,20.95
2022-08-14T01:07:27.178Z,20.94
2022-08-14T01:10:01.686Z,20.91
2022-08-14T01:12:30.925Z,20.90
2022-08-14T01:15:01.984Z,20.86
2022-08-14T01:17:49.707Z,20.83
2022-08-14T01:20:39.872Z,20.79
2022-08-14T01:23:16.843Z,20.72
2022-08-14T01:25:52.273Z,20.70
2022-08-14T01:28:46.786Z,20.66
2022-08-14T01:31:14.371Z,20.64
2022-08-14T01:35:16.097Z,20.62
2022-08-14T01:36:39.095Z,20.60
2022-08-14T01:39:14.408Z,20.59
2022-08-14T01:41:46.788Z,20.61
2022-08-14T01:44:33.531Z,20.62
2022-08-14T01:47:12.239Z,20.60
2022-08-14T01:50:01.686Z,20.59
2022-08-14T01:52:58.648Z,20.56
2022-08-14T01:55:30.725Z,20.56
2022-08-14T01:58:02.225Z,20.54
2022-08-14T02:00:47.840Z,20.52
2022-08-14T02:03:17.156Z,20.50
2022-08-14T02:05:46.071Z,20.47
2022-08-14T02:08:16.068Z,20.48
2022-08-14T02:11:15.871Z,20.45
2022-08-14T02:13:50.729Z,20.44
2022-08-14T02:16:24.073Z,20.41
2022-08-14T02:18:58.073Z,20.36
2022-08-14T02:21:27.489Z,20.31
2022-08-14T02:23:57.386Z,20.26
2022-08-14T02:26:30.869Z,20.23
2022-08-14T02:29:03.749Z,20.20
2022-08-14T02:31:41.934Z,20.19
2022-08-14T02:34:22.053Z,20.16
2022-08-14T02:37:03.422Z,20.14
2022-08-14T02:39:38.241Z,20.12
2022-08-14T02:42:13.208Z,20.10
2022-08-14T02:44:49.014Z,20.06
2022-08-14T02:47:21.169Z,20.05
2022-08-14T02:49:56.926Z,20.05
2022-08-14T02:52:56.025Z,20.04
2022-08-14T02:55:20.428Z,20.02
2022-08-14T02:57:57.971Z,20.01
2022-08-14T03:00:35.488Z,19.97
2022-08-14T03:03:08.770Z,19.94
2022-08-14T03:05:41.218Z,19.91
2022-08-14T03:08:15.383Z,19.84
2022-08-14T03:10:49.191Z,19.80
2022-08-14T03:13:22.030Z,19.74
2022-08-14T03:15:55.761Z,19.69
2022-08-14T03:18:31.472Z,19.65
2022-08-14T03:21:07.809Z,19.61
2022-08-14T03:23:38.707Z,19.58
2022-08-14T03:26:13.224Z,19.57
2022-08-14T03:28:51.293Z,19.56
2022-08-14T03:31:25.922Z,19.56
2022-08-14T03:33:59.877Z,19.55
2022-08-14T03:37:39.107Z,19.53
2022-08-14T03:39:22.872Z,19.49
2022-08-14T03:41:55.867Z,19.48
2022-08-14T03:45:19.807Z,19.48
2022-08-14T03:47:15.360Z,19.48
2022-08-14T03:49:50.096Z,19.49
2022-08-14T03:52:40.857Z,19.43
2022-08-14T03:55:11.234Z,19.45
2022-08-14T03:57:40.674Z,19.43
2022-08-14T04:00:40.702Z,19.42
2022-08-14T04:03:03.271Z,19.39
2022-08-14T04:05:42.730Z,19.38
2022-08-14T04:08:29.767Z,19.37
2022-08-14T04:11:00.976Z,19.36
2022-08-14T04:13:31.752Z,19.36
2022-08-14T04:16:05.098Z,19.37
2022-08-14T04:18:39.705Z,19.37
2022-08-14T04:21:11.446Z,19.39
2022-08-14T04:23:41.161Z,19.42
2022-08-14T04:26:14.601Z,19.43
2022-08-14T04:29:08.163Z,19.43
2022-08-14T04:32:57.834Z,19.44
2022-08-14T04:34:35.077Z,19.45
2022-08-14T04:37:24.719Z,19.47
2022-08-14T04:40:13.196Z,19.48
2022-08-14T04:43:01.548Z,19.49
2022-08-14T04:45:37.287Z,19.52
2022-08-14T04:48:13.734Z,19.54
2022-08-14T04:51:03.505Z,19.57
2022-08-14T04:53:35.242Z,19.57
2022-08-14T04:56:06.189Z,19.60
2022-08-14T04:58:40.401Z,19.61
2022-08-14T05:01:12.582Z,19.59
2022-08-14T05:03:44.021Z,19.58
2022-08-14T05:06:35.040Z,19.57
2022-08-14T05:09:03.141Z,19.55
2022-08-14T05:11:33.338Z,19.57
2022-08-14T05:14:34.384Z,19.59
2022-08-14T05:17:01.467Z,19.60
2022-08-14T05:19:32.895Z,19.66
2022-08-14T05:22:16.918Z,19.70
2022-08-14T05:24:50.571Z,19.75
2022-08-14T05:27:22.790Z,19.81
2022-08-14T05:29:57.016Z,19.85
2022-08-14T05:32:27.543Z,19.91
2022-08-14T05:35:01.014Z,19.96
2022-08-14T05:37:30.784Z,20.02
2022-08-14T05:40:02.123Z,20.08
2022-08-14T05:42:34.099Z,20.12
2022-08-14T05:45:05.717Z,20.17
2022-08-14T05:47:41.587Z,20.22
2022-08-14T05:50:18.519Z,20.27
2022-08-14T05:52:51.105Z,20.34
2022-08-14T05:55:22.148Z,20.41
2022-08-14T05:57:54.575Z,20.47
2022-08-14T06:00:28.942Z,20.52
2022-08-14T06:03:00.488Z,20.57
2022-08-14T06:05:31.512Z,20.63
2022-08-14T06:08:00.897Z,20.68
2022-08-14T06:10:31.899Z,20.75
2022-08-14T06:13:03.360Z,20.82
2022-08-14T06:15:31.799Z,20.88
2022-08-14T06:18:01.918Z,20.93
2022-08-14T06:20:34.278Z,20.98
2022-08-14T06:23:03.294Z,21.04
2022-08-14T06:25:32.765Z,21.11
2022-08-14T06:28:03.832Z,21.18
2022-08-14T06:30:46.401Z,21.25
2022-08-14T06:33:18.601Z,21.30
2022-08-14T06:35:49.836Z,21.34
2022-08-14T06:38:21.552Z,21.38
2022-08-14T06:40:53.346Z,21.46
2022-08-14T06:43:27.042Z,21.52
2022-08-14T06:45:57.124Z,21.58
2022-08-14T06:48:26.889Z,21.64
2022-08-14T06:50:58.194Z,21.70
2022-08-14T06:53:27.598Z,21.76
2022-08-14T06:56:02.122Z,21.83
2022-08-14T06:58:32.448Z,21.95
2022-08-14T07:01:34.612Z,22.04
2022-08-14T07:04:23.624Z,22.14
2022-08-14T07:06:59.061Z,22.25
2022-08-14T07:09:43.388Z,22.39
2022-08-14T07:12:35.052Z,22.48
2022-08-14T07:15:02.840Z,22.63
2022-08-14T07:17:34.288Z,22.83
2022-08-14T07:20:07.413Z,23.29
2022-08-14T07:22:56.285Z,24.20
2022-08-14T07:25:32.291Z,25.44
2022-08-14T07:28:01.859Z,26.50
2022-08-14T07:30:33.819Z,27.36
2022-08-14T07:33:04.440Z,28.17
2022-08-14T07:35:43.091Z,28.89
2022-08-14T07:38:25.056Z,29.52
2022-08-14T07:40:54.272Z,29.98
2022-08-14T07:43:24.497Z,30.35
2022-08-14T07:45:54.659Z,30.58
2022-08-14T07:48:25.423Z,30.62
2022-08-14T07:51:02.138Z,30.66
2022-08-14T07:53:39.299Z,30.79
2022-08-14T07:56:21.642Z,30.90
2022-08-14T07:58:59.338Z,30.99
2022-08-14T08:01:30.936Z,30.96
2022-08-14T08:04:03.721Z,30.84
2022-08-14T08:06:45.943Z,30.86
2022-08-14T08:09:18.303Z,30.90
2022-08-14T08:11:54.319Z,31.00
2022-08-14T08:14:26.177Z,30.98
2022-08-14T08:16:57.944Z,31.03
2022-08-14T08:19:26.647Z,31.16
2022-08-14T08:22:06.174Z,31.34
2022-08-14T08:24:36.665Z,31.54
2022-08-14T08:27:16.732Z,31.75
2022-08-14T08:29:51.013Z,32.03
2022-08-14T08:32:19.968Z,32.31
2022-08-14T08:34:49.623Z,32.50
2022-08-14T08:37:18.457Z,32.64
2022-08-14T08:40:03.367Z,32.93
2022-08-14T08:42:38.369Z,33.11
2022-08-14T08:45:12.133Z,33.31
2022-08-14T08:47:41.958Z,33.54
2022-08-14T08:53:02.525Z,34.16
2022-08-14T08:55:38.401Z,34.36
2022-08-14T08:58:16.207Z,34.58
2022-08-14T09:00:50.436Z,34.73
2022-08-14T09:03:27.298Z,34.99
2022-08-14T09:05:58.740Z,35.21
2022-08-14T09:08:33.087Z,35.32
2022-08-14T09:11:18.943Z,35.56
2022-08-14T09:13:52.245Z,35.81
2022-08-14T09:16:25.734Z,36.04
2022-08-14T09:18:55.864Z,36.23
2022-08-14T09:21:31.434Z,36.49
2022-08-14T09:24:26.612Z,36.82
2022-08-14T09:26:52.444Z,37.05
2022-08-14T09:29:23.064Z,37.06
2022-08-14T09:31:59.219Z,37.01
2022-08-14T09:34:58.336Z,37.22
2022-08-14T09:37:55.228Z,37.39
2022-08-14T09:40:40.300Z,37.53
2022-08-14T09:43:26.260Z,37.73
2022-08-14T09:45:58.575Z,37.84
2022-08-14T09:48:31.516Z,37.78
2022-08-14T09:54:19.067Z,37.92
2022-08-14T09:56:56.644Z,38.03
2022-08-14T09:59:28.291Z,38.09
2022-08-14T10:02:01.141Z,38.18
2022-08-14T10:04:33.461Z,38.29
2022-08-14T10:07:05.776Z,38.43
2022-08-14T10:09:35.013Z,38.68
2022-08-14T10:12:13.264Z,38.87
2022-08-14T10:14:53.544Z,39.10
2022-08-14T10:17:33.024Z,39.29
2022-08-14T10:20:40.399Z,39.38
2022-08-14T10:23:16.522Z,39.44
2022-08-14T10:25:50.772Z,39.53
2022-08-14T10:28:39.075Z,39.48
2022-08-14T10:31:25.801Z,39.46
2022-08-14T10:34:05.113Z,39.42
2022-08-14T10:36:45.719Z,39.10
2022-08-14T10:39:20.931Z,39.03
2022-08-14T10:41:54.160Z,39.17
2022-08-14T10:44:29.608Z,39.42
2022-08-14T10:47:39.329Z,39.45
2022-08-14T10:50:00.287Z,39.59
2022-08-14T10:52:33.896Z,39.71
2022-08-14T10:55:13.967Z,39.85
2022-08-14T10:57:53.821Z,40.11
2022-08-14T11:00:29.843Z,39.99
2022-08-14T11:03:09.732Z,39.98
2022-08-14T11:05:43.566Z,39.99
2022-08-14T11:08:14.505Z,40.09
2022-08-14T11:10:49.108Z,40.22
2022-08-14T11:13:24.107Z,40.44
2022-08-14T11:15:56.100Z,40.44
2022-08-14T11:18:32.124Z,40.57
2022-08-14T11:21:08.253Z,40.73
2022-08-14T11:23:43.795Z,40.87
2022-08-14T11:26:16.638Z,40.78
2022-08-14T11:28:49.907Z,40.64
2022-08-14T11:31:23.415Z,40.67
2022-08-14T11:33:58.264Z,40.70
2022-08-14T11:36:57.190Z,40.72
2022-08-14T11:39:33.927Z,40.61
2022-08-14T11:42:55.491Z,40.46
2022-08-14T11:45:00.226Z,40.52
2022-08-14T11:47:35.315Z,40.34
2022-08-14T11:50:25.198Z,39.90
2022-08-14T11:53:04.883Z,39.16
2022-08-14T11:55:38.106Z,38.80
2022-08-14T11:58:10.941Z,38.85
2022-08-14T12:00:53.475Z,39.12
2022-08-14T12:03:37.390Z,39.32
2022-08-14T12:06:28.563Z,39.41
2022-08-14T12:09:02.821Z,39.81
2022-08-14T12:11:43.385Z,40.31
2022-08-14T12:14:30.873Z,40.65
2022-08-14T12:17:12.748Z,41.12
2022-08-14T12:20:03.289Z,41.61
2022-08-14T12:22:40.234Z,41.82
2022-08-14T12:25:13.727Z,42.04
2022-08-14T12:27:52.022Z,42.19
2022-08-14T12:30:39.525Z,42.05
2022-08-14T12:33:25.507Z,42.02
2022-08-14T12:35:57.580Z,41.81
2022-08-14T12:38:38.068Z,41.55
2022-08-14T12:41:16.506Z,41.56
2022-08-14T12:43:53.609Z,41.50
2022-08-14T12:46:28.811Z,41.24
2022-08-14T12:48:59.998Z,41.07
2022-08-14T12:51:31.478Z,40.89
2022-08-14T12:54:27.791Z,40.74
2022-08-14T12:57:08.145Z,40.78
2022-08-14T12:59:42.799Z,40.85
2022-08-14T13:02:25.436Z,41.00
2022-08-14T13:04:57.817Z,40.93
2022-08-14T13:07:32.496Z,40.99
2022-08-14T13:10:12.875Z,41.51
2022-08-14T13:15:46.328Z,42.47
2022-08-14T13:18:17.035Z,42.95
2022-08-14T13:20:51.446Z,43.18
2022-08-14T13:23:30.699Z,43.44
2022-08-14T13:26:02.848Z,43.54
2022-08-14T13:28:33.712Z,43.39
2022-08-14T13:31:10.967Z,43.02
2022-08-14T13:33:41.572Z,42.58
2022-08-14T13:36:24.140Z,42.07
2022-08-14T13:38:56.221Z,42.19
2022-08-14T13:41:31.927Z,42.34
2022-08-14T13:44:13.681Z,42.08
2022-08-14T13:46:44.349Z,41.86
2022-08-14T13:49:14.925Z,41.77
2022-08-14T13:51:50.517Z,41.72
2022-08-14T13:54:24.838Z,41.90
2022-08-14T13:56:58.054Z,42.17
2022-08-14T13:59:37.713Z,42.38
2022-08-14T14:02:09.134Z,42.35
2022-08-14T14:04:42.908Z,42.24
2022-08-14T14:07:17.847Z,41.98
2022-08-14T14:09:52.661Z,41.79
2022-08-14T14:12:38.282Z,41.44
2022-08-14T14:15:13.743Z,41.28
2022-08-14T14:17:43.965Z,41.28
2022-08-14T14:20:35.720Z,41.03
2022-08-14T14:23:09.594Z,41.08
2022-08-14T14:25:51.245Z,41.16
2022-08-14T14:28:33.835Z,41.12
2022-08-14T14:31:06.947Z,41.41
2022-08-14T14:33:46.794Z,41.83
2022-08-14T14:36:21.495Z,41.73
2022-08-14T14:38:54.837Z,41.56
2022-08-14T14:41:26.825Z,41.62
2022-08-14T14:44:13.530Z,41.53
2022-08-14T14:46:51.139Z,41.27
2022-08-14T14:49:31.913Z,40.75
2022-08-14T14:52:23.435Z,40.08
2022-08-14T14:54:58.734Z,39.87
2022-08-14T14:57:34.865Z,39.88
2022-08-14T15:00:13.036Z,39.86
2022-08-14T15:02:44.638Z,39.97
2022-08-14T15:05:16.023Z,39.80
2022-08-14T15:07:46.020Z,39.47
2022-08-14T15:10:27.637Z,39.26
2022-08-14T15:13:04.091Z,39.27
2022-08-14T15:15:37.351Z,39.36
2022-08-14T15:18:14.974Z,39.46
2022-08-14T15:20:58.036Z,39.39
2022-08-14T15:23:32.464Z,39.41
2022-08-14T15:26:31.028Z,39.71
2022-08-14T15:29:05.808Z,39.72
2022-08-14T15:31:37.402Z,39.40
2022-08-14T15:34:45.444Z,39.04
2022-08-14T15:37:12.842Z,38.78
2022-08-14T15:39:44.311Z,38.55
2022-08-14T15:42:15.803Z,38.33
2022-08-14T15:44:57.474Z,38.17
2022-08-14T15:47:31.662Z,37.98
2022-08-14T15:50:04.746Z,37.64
2022-08-14T15:52:37.056Z,37.35
2022-08-14T15:55:09.113Z,36.98
2022-08-14T15:57:38.792Z,36.61
2022-08-14T16:00:40.329Z,36.51
2022-08-14T16:03:16.457Z,36.73
2022-08-14T16:05:46.313Z,37.01
2022-08-14T16:08:29.511Z,37.30
2022-08-14T16:11:01.400Z,37.45
2022-08-14T16:13:41.117Z,37.36
2022-08-14T16:16:34.735Z,37.05
2022-08-14T16:19:09.979Z,36.75
2022-08-14T16:22:00.453Z,36.57
2022-08-14T16:24:34.738Z,36.42
2022-08-14T16:27:05.802Z,36.26
2022-08-14T16:29:40.098Z,36.06
2022-08-14T16:32:32.706Z,35.84
2022-08-14T16:35:03.731Z,35.72
2022-08-14T16:37:35.325Z,35.55
2022-08-14T16:40:05.317Z,35.34
2022-08-14T16:43:04.086Z,35.17
2022-08-14T16:45:33.647Z,35.03
2022-08-14T16:48:02.258Z,34.93
2022-08-14T16:50:40.758Z,34.86
2022-08-14T16:53:17.896Z,34.73
2022-08-14T16:55:53.243Z,34.60
2022-08-14T16:58:29.823Z,34.41
2022-08-14T17:01:24.508Z,34.25
2022-08-14T17:03:58.171Z,34.22
2022-08-14T17:06:46.693Z,34.14
2022-08-14T17:09:35.444Z,34.01
2022-08-14T17:12:33.770Z,33.89
2022-08-14T17:15:10.025Z,33.84
2022-08-14T17:17:58.238Z,33.81
2022-08-14T17:20:39.802Z,33.82
2022-08-14T17:23:18.792Z,33.95
2022-08-14T17:25:49.421Z,34.09
2022-08-14T17:28:52.038Z,34.15
2022-08-14T17:31:12.719Z,34.09
2022-08-14T17:33:44.745Z,34.01
2022-08-14T17:36:24.477Z,33.88
2022-08-14T17:39:06.689Z,33.76
2022-08-14T17:41:43.613Z,33.62
2022-08-14T17:44:34.428Z,33.44
2022-08-14T17:47:18.033Z,33.29
2022-08-14T17:49:52.712Z,33.13
2022-08-14T17:52:34.234Z,32.99
2022-08-14T17:55:12.630Z,32.84
2022-08-14T17:58:00.509Z,32.68
2022-08-14T18:00:30.543Z,32.57
2022-08-14T18:03:00.121Z,32.44
2022-08-14T18:06:07.710Z,32.32
2022-08-14T18:08:33.960Z,32.14
2022-08-14T18:11:15.189Z,31.96
2022-08-14T18:13:49.973Z,31.82
2022-08-14T18:16:22.285Z,31.69
2022-08-14T18:18:52.558Z,31.56
2022-08-14T18:21:41.766Z,31.43
2022-08-14T18:24:20.051Z,31.29
2022-08-14T18:27:09.464Z,31.13
2022-08-14T18:29:54.959Z,31.01
2022-08-14T18:32:54.753Z,30.83
2022-08-14T18:35:45.728Z,30.73
2022-08-14T18:38:58.191Z,30.59
2022-08-14T18:41:38.059Z,30.45
2022-08-14T18:44:10.913Z,30.39
2022-08-14T18:47:23.274Z,30.28
2022-08-14T18:50:26.312Z,30.18
2022-08-14T18:52:54.738Z,30.10
2022-08-14T18:55:53.024Z,29.99
2022-08-14T18:58:34.067Z,29.91
2022-08-14T19:01:06.490Z,29.83
2022-08-14T19:04:02.147Z,29.71
2022-08-14T19:06:56.488Z,29.61
2022-08-14T19:09:58.781Z,29.49
2022-08-14T19:13:05.286Z,29.37
2022-08-14T19:15:43.844Z,29.28
2022-08-14T19:18:38.485Z,29.19
2022-08-14T19:21:24.002Z,29.10
2022-08-14T19:24:27.888Z,28.99
2022-08-14T19:27:22.907Z,28.91
2022-08-14T19:30:19.776Z,28.85
2022-08-14T19:32:53.134Z,28.76
2022-08-14T19:35:55.805Z,28.64
2022-08-14T19:38:54.252Z,28.55
2022-08-14T19:41:30.054Z,28.49
2022-08-14T19:44:10.877Z,28.43
2022-08-14T19:47:01.360Z,28.39
2022-08-14T19:50:30.413Z,28.32
2022-08-14T19:52:35.322Z,28.26
2022-08-14T19:55:17.556Z,28.18
2022-08-14T19:57:58.057Z,28.14
2022-08-14T20:00:30.269Z,28.06
2022-08-14T20:03:10.603Z,28.02
2022-08-14T20:05:42.994Z,27.84
2022-08-14T20:09:05.597Z,27.60
2022-08-14T20:11:21.017Z,27.41
2022-08-14T20:14:04.061Z,27.28
2022-08-14T20:16:42.089Z,27.18
2022-08-14T20:19:23.204Z,27.14
2022-08-14T20:22:04.757Z,27.14
2022-08-14T20:24:47.258Z,27.10
2022-08-14T20:27:39.437Z,27.08
2022-08-14T20:30:29.791Z,27.05
2022-08-14T20:33:07.681Z,27.01
2022-08-14T20:35:44.433Z,27.00
2022-08-14T20:38:29.721Z,27.00
2022-08-14T20:41:06.712Z,26.99
2022-08-14T20:43:57.176Z,26.99
2022-08-14T20:46:29.777Z,26.99
2022-08-14T20:49:01.303Z,27.00
2022-08-14T20:51:39.039Z,27.02
2022-08-14T20:54:34.707Z,27.04
2022-08-14T20:57:12.147Z,27.04
2022-08-14T20:59:44.766Z,27.07
2022-08-14T21:02:34.293Z,27.07
2022-08-14T21:05:17.296Z,27.07
2022-08-14T21:07:50.883Z,27.07
2022-08-14T21:10:36.261Z,27.05
2022-08-14T21:13:27.937Z,26.99
2022-08-14T21:16:05.444Z,26.92
2022-08-14T21:18:57.022Z,26.85
2022-08-14T21:21:41.799Z,26.81
2022-08-14T21:24:40.205Z,26.77
2022-08-14T21:27:12.621Z,26.74
2022-08-14T21:29:53.406Z,26.73
2022-08-14T21:32:34.066Z,26.71
2022-08-14T21:35:08.729Z,26.69
2022-08-14T21:37:46.035Z,26.68
2022-08-14T21:40:41.144Z,26.68
2022-08-14T21:43:17.573Z,26.65
2022-08-14T21:45:53.300Z,26.62
2022-08-14T21:48:25.028Z,26.55
2022-08-14T21:51:01.339Z,26.45
2022-08-14T21:53:58.791Z,26.33
2022-08-14T21:56:37.548Z,26.25
2022-08-14T21:59:17.680Z,26.18
2022-08-14T22:02:01.918Z,26.12
2022-08-14T22:04:40.641Z,26.07
2022-08-14T22:07:16.816Z,26.05
2022-08-14T22:09:55.259Z,26.03
2022-08-14T22:12:58.737Z,26.02
2022-08-14T22:15:16.905Z,26.00
2022-08-14T22:17:52.228Z,25.95
2022-08-14T22:20:28.088Z,25.92
2022-08-14T22:23:04.541Z,25.90
2022-08-14T22:25:41.216Z,25.90
2022-08-14T22:28:15.589Z,25.90
2022-08-14T22:30:45.121Z,25.93
2022-08-14T22:33:15.316Z,25.93
2022-08-14T22:35:46.179Z,25.95
2022-08-14T22:38:35.634Z,25.94
2022-08-14T22:41:27.451Z,25.93
2022-08-14T22:44:01.896Z,25.91
2022-08-14T22:46:30.364Z,25.91
2022-08-14T22:48:59.305Z,25.89
2022-08-14T22:51:28.160Z,25.90
2022-08-14T22:54:00.310Z,25.90
2022-08-14T22:56:30.806Z,25.92
2022-08-14T22:59:01.737Z,25.90
2022-08-14T23:01:55.055Z,25.90
2022-08-14T23:04:35.648Z,25.88
2022-08-14T23:07:22.261Z,25.85
2022-08-14T23:09:57.637Z,25.85
2022-08-14T23:12:54.699Z,25.85
2022-08-14T23:15:28.972Z,25.85
2022-08-14T23:17:59.469Z,25.86
2022-08-14T23:20:29.384Z,25.87
2022-08-14T23:22:59.117Z,25.85
2022-08-14T23:25:56.845Z,25.80
2022-08-14T23:28:32.675Z,25.75
2022-08-14T23:31:06.088Z,25.70
2022-08-14T23:33:42.081Z,25.68
2022-08-14T23:36:32.122Z,25.66
2022-08-14T23:39:12.404Z,25.62
2022-08-14T23:41:53.128Z,25.56
2022-08-14T23:44:24.456Z,25.50
2022-08-14T23:46:56.912Z,25.38
2022-08-14T23:49:41.214Z,25.26
2022-08-14T23:52:51.380Z,25.19
2022-08-14T23:55:11.527Z,25.12
2022-08-14T23:57:43.810Z,25.11
